sensor_id;sensor_type;location;lat;lon;timestamp;P1;durP1;ratioP1;P2;durP2;ratioP2
51527;SDS011;37612;51.768;21.590;2022-07-09T00:00:38;2.90;;;2.00;;
51527;SDS011;37612;51.768;21.590;2022-07-09T00:04:41;4.00;;;1.80;;
51527;SDS011;37612;51.768;21.590;2022-07-09T00:08:43;4.20;;;2.40;;
51527;SDS011;37612;51.768;21.590;2022-07-09T00:12:45;1.60;;;1.50;;
51527;SDS011;37612;51.768;21.590;2022-07-09T00:16:48;5.50;;;2.20;;
51527;SDS011;37612;51.768;21.590;2022-07-09T00:20:50;7.10;;;2.40;;
51527;SDS011;37612;51.768;21.590;2022-07-09T00:24:51;5.40;;;2.30;;
51527;SDS011;37612;51.768;21.590;2022-07-09T00:28:53;3.50;;;2.30;;
51527;SDS011;37612;51.768;21.590;2022-07-09T00:32:55;2.60;;;2.20;;
51527;SDS011;37612;51.768;21.590;2022-07-09T00:36:57;2.90;;;1.60;;
51527;SDS011;37612;51.768;21.590;2022-07-09T00:40:59;6.10;;;1.70;;
51527;SDS011;37612;51.768;21.590;2022-07-09T00:45:00;1.90;;;1.60;;
51527;SDS011;37612;51.768;21.590;2022-07-09T00:49:02;4.00;;;2.00;;
51527;SDS011;37612;51.768;21.590;2022-07-09T00:53:08;4.60;;;2.20;;
51527;SDS011;37612;51.768;21.590;2022-07-09T00:57:12;4.50;;;1.90;;
51527;SDS011;37612;51.768;21.590;2022-07-09T01:01:14;4.30;;;2.00;;
51527;SDS011;37612;51.768;21.590;2022-07-09T01:05:16;3.50;;;2.80;;
51527;SDS011;37612;51.768;21.590;2022-07-09T01:09:18;4.80;;;2.50;;
51527;SDS011;37612;51.768;21.590;2022-07-09T01:13:20;4.80;;;2.00;;
51527;SDS011;37612;51.768;21.590;2022-07-09T01:17:22;6.70;;;2.80;;
51527;SDS011;37612;51.768;21.590;2022-07-09T01:21:23;5.00;;;2.90;;
51527;SDS011;37612;51.768;21.590;2022-07-09T01:25:34;3.20;;;1.80;;
51527;SDS011;37612;51.768;21.590;2022-07-09T01:29:38;5.50;;;2.20;;
51527;SDS011;37612;51.768;21.590;2022-07-09T01:33:41;4.40;;;2.10;;
51527;SDS011;37612;51.768;21.590;2022-07-09T01:37:43;4.00;;;2.20;;
51527;SDS011;37612;51.768;21.590;2022-07-09T01:41:45;8.20;;;2.10;;
51527;SDS011;37612;51.768;21.590;2022-07-09T01:45:47;4.00;;;1.70;;
51527;SDS011;37612;51.768;21.590;2022-07-09T01:49:49;3.50;;;1.80;;
51527;SDS011;37612;51.768;21.590;2022-07-09T01:53:53;3.00;;;1.70;;
51527;SDS011;37612;51.768;21.590;2022-07-09T01:57:54;5.70;;;2.20;;
51527;SDS011;37612;51.768;21.590;2022-07-09T02:01:56;3.20;;;1.80;;
51527;SDS011;37612;51.768;21.590;2022-07-09T02:05:58;3.50;;;1.90;;
51527;SDS011;37612;51.768;21.590;2022-07-09T02:10:00;2.60;;;2.00;;
51527;SDS011;37612;51.768;21.590;2022-07-09T02:14:02;5.60;;;1.90;;
51527;SDS011;37612;51.768;21.590;2022-07-09T02:18:03;6.30;;;2.00;;
51527;SDS011;37612;51.768;21.590;2022-07-09T02:22:05;4.00;;;1.80;;
51527;SDS011;37612;51.768;21.590;2022-07-09T02:26:07;5.40;;;2.30;;
51527;SDS011;37612;51.768;21.590;2022-07-09T02:30:09;4.00;;;2.30;;
51527;SDS011;37612;51.768;21.590;2022-07-09T02:34:12;4.40;;;1.70;;
51527;SDS011;37612;51.768;21.590;2022-07-09T02:38:13;3.30;;;1.60;;
51527;SDS011;37612;51.768;21.590;2022-07-09T02:42:15;2.90;;;1.70;;
51527;SDS011;37612;51.768;21.590;2022-07-09T02:46:17;4.40;;;1.90;;
51527;SDS011;37612;51.768;21.590;2022-07-09T02:50:19;3.30;;;2.00;;
51527;SDS011;37612;51.768;21.590;2022-07-09T02:54:21;2.90;;;1.60;;
51527;SDS011;37612;51.768;21.590;2022-07-09T02:58:24;4.50;;;1.90;;
51527;SDS011;37612;51.768;21.590;2022-07-09T03:02:26;2.30;;;1.60;;
51527;SDS011;37612;51.768;21.590;2022-07-09T03:06:28;3.90;;;1.80;;
51527;SDS011;37612;51.768;21.590;2022-07-09T03:10:30;5.70;;;1.70;;
51527;SDS011;37612;51.768;21.590;2022-07-09T03:14:32;5.90;;;1.80;;
51527;SDS011;37612;51.768;21.590;2022-07-09T03:18:34;5.90;;;2.20;;
51527;SDS011;37612;51.768;21.590;2022-07-09T03:22:36;8.10;;;1.70;;
51527;SDS011;37612;51.768;21.590;2022-07-09T03:26:38;4.50;;;1.90;;
51527;SDS011;37612;51.768;21.590;2022-07-09T03:30:40;2.80;;;1.40;;
51527;SDS011;37612;51.768;21.590;2022-07-09T03:34:42;1.60;;;1.50;;
51527;SDS011;37612;51.768;21.590;2022-07-09T03:38:44;4.40;;;1.80;;
51527;SDS011;37612;51.768;21.590;2022-07-09T03:42:45;5.50;;;1.60;;
51527;SDS011;37612;51.768;21.590;2022-07-09T03:46:47;2.70;;;1.80;;
51527;SDS011;37612;51.768;21.590;2022-07-09T03:50:49;7.10;;;2.00;;
51527;SDS011;37612;51.768;21.590;2022-07-09T03:54:51;4.60;;;1.70;;
51527;SDS011;37612;51.768;21.590;2022-07-09T03:58:53;1.90;;;1.40;;
51527;SDS011;37612;51.768;21.590;2022-07-09T04:02:54;3.20;;;1.70;;
51527;SDS011;37612;51.768;21.590;2022-07-09T04:06:56;1.90;;;1.70;;
51527;SDS011;37612;51.768;21.590;2022-07-09T04:10:58;10.00;;;2.20;;
51527;SDS011;37612;51.768;21.590;2022-07-09T04:15:00;3.70;;;1.80;;
51527;SDS011;37612;51.768;21.590;2022-07-09T04:19:02;3.50;;;2.20;;
51527;SDS011;37612;51.768;21.590;2022-07-09T04:23:03;7.70;;;2.30;;
51527;SDS011;37612;51.768;21.590;2022-07-09T04:27:06;3.90;;;2.00;;
51527;SDS011;37612;51.768;21.590;2022-07-09T04:31:08;5.10;;;2.40;;
51527;SDS011;37612;51.768;21.590;2022-07-09T04:35:09;5.10;;;2.20;;
51527;SDS011;37612;51.768;21.590;2022-07-09T04:39:11;6.10;;;2.10;;
51527;SDS011;37612;51.768;21.590;2022-07-09T04:43:13;4.80;;;2.40;;
51527;SDS011;37612;51.768;21.590;2022-07-09T04:47:15;6.50;;;2.20;;
51527;SDS011;37612;51.768;21.590;2022-07-09T04:51:16;2.80;;;1.80;;
51527;SDS011;37612;51.768;21.590;2022-07-09T04:55:18;7.80;;;2.10;;
51527;SDS011;37612;51.768;21.590;2022-07-09T04:59:22;5.60;;;2.00;;
51527;SDS011;37612;51.768;21.590;2022-07-09T05:03:24;3.60;;;2.00;;
51527;SDS011;37612;51.768;21.590;2022-07-09T05:07:27;12.40;;;2.80;;
51527;SDS011;37612;51.768;21.590;2022-07-09T05:11:29;4.80;;;3.20;;
51527;SDS011;37612;51.768;21.590;2022-07-09T05:15:31;5.40;;;2.30;;
51527;SDS011;37612;51.768;21.590;2022-07-09T05:19:34;4.70;;;2.50;;
51527;SDS011;37612;51.768;21.590;2022-07-09T05:23:38;5.50;;;2.70;;
51527;SDS011;37612;51.768;21.590;2022-07-09T05:27:41;4.80;;;3.00;;
51527;SDS011;37612;51.768;21.590;2022-07-09T05:31:44;6.20;;;2.20;;
51527;SDS011;37612;51.768;21.590;2022-07-09T05:35:45;9.30;;;3.00;;
51527;SDS011;37612;51.768;21.590;2022-07-09T05:43:50;6.50;;;2.90;;
51527;SDS011;37612;51.768;21.590;2022-07-09T05:47:52;5.90;;;2.20;;
51527;SDS011;37612;51.768;21.590;2022-07-09T05:51:54;5.70;;;2.20;;
51527;SDS011;37612;51.768;21.590;2022-07-09T05:55:56;5.10;;;2.10;;
51527;SDS011;37612;51.768;21.590;2022-07-09T05:59:57;10.30;;;2.90;;
51527;SDS011;37612;51.768;21.590;2022-07-09T06:03:59;6.80;;;2.40;;
51527;SDS011;37612;51.768;21.590;2022-07-09T06:12:03;7.70;;;2.30;;
51527;SDS011;37612;51.768;21.590;2022-07-09T06:16:06;8.70;;;2.10;;
51527;SDS011;37612;51.768;21.590;2022-07-09T06:24:13;6.70;;;2.60;;
51527;SDS011;37612;51.768;21.590;2022-07-09T06:28:15;8.50;;;2.20;;
51527;SDS011;37612;51.768;21.590;2022-07-09T06:32:17;2.80;;;1.70;;
51527;SDS011;37612;51.768;21.590;2022-07-09T06:36:19;3.70;;;1.60;;
51527;SDS011;37612;51.768;21.590;2022-07-09T06:40:21;6.20;;;2.00;;
51527;SDS011;37612;51.768;21.590;2022-07-09T06:44:22;6.30;;;1.80;;
51527;SDS011;37612;51.768;21.590;2022-07-09T06:48:24;7.10;;;2.00;;
51527;SDS011;37612;51.768;21.590;2022-07-09T06:52:26;4.30;;;1.70;;
51527;SDS011;37612;51.768;21.590;2022-07-09T06:56:28;6.30;;;2.00;;
51527;SDS011;37612;51.768;21.590;2022-07-09T07:00:30;5.90;;;2.00;;
51527;SDS011;37612;51.768;21.590;2022-07-09T07:04:32;7.60;;;1.80;;
51527;SDS011;37612;51.768;21.590;2022-07-09T07:08:35;4.70;;;1.60;;
51527;SDS011;37612;51.768;21.590;2022-07-09T07:16:39;2.70;;;1.80;;
51527;SDS011;37612;51.768;21.590;2022-07-09T07:20:42;6.00;;;1.70;;
51527;SDS011;37612;51.768;21.590;2022-07-09T07:24:44;3.80;;;1.90;;
51527;SDS011;37612;51.768;21.590;2022-07-09T07:28:46;6.90;;;2.50;;
51527;SDS011;37612;51.768;21.590;2022-07-09T07:32:50;3.40;;;1.60;;
51527;SDS011;37612;51.768;21.590;2022-07-09T07:36:52;4.90;;;1.70;;
51527;SDS011;37612;51.768;21.590;2022-07-09T07:44:55;3.00;;;1.40;;
51527;SDS011;37612;51.768;21.590;2022-07-09T07:48:57;2.40;;;1.10;;
51527;SDS011;37612;51.768;21.590;2022-07-09T07:52:59;3.40;;;1.20;;
51527;SDS011;37612;51.768;21.590;2022-07-09T07:57:01;3.90;;;1.80;;
51527;SDS011;37612;51.768;21.590;2022-07-09T08:01:02;2.40;;;1.50;;
51527;SDS011;37612;51.768;21.590;2022-07-09T08:05:05;2.20;;;1.60;;
51527;SDS011;37612;51.768;21.590;2022-07-09T08:09:07;2.50;;;1.60;;
51527;SDS011;37612;51.768;21.590;2022-07-09T08:13:09;4.30;;;2.40;;
51527;SDS011;37612;51.768;21.590;2022-07-09T08:17:13;4.20;;;2.10;;
51527;SDS011;37612;51.768;21.590;2022-07-09T08:21:14;1.60;;;1.40;;
51527;SDS011;37612;51.768;21.590;2022-07-09T08:25:16;3.90;;;2.10;;
51527;SDS011;37612;51.768;21.590;2022-07-09T08:29:18;3.90;;;2.30;;
51527;SDS011;37612;51.768;21.590;2022-07-09T08:33:20;3.90;;;1.40;;
51527;SDS011;37612;51.768;21.590;2022-07-09T08:37:21;1.90;;;1.20;;
51527;SDS011;37612;51.768;21.590;2022-07-09T08:41:23;2.40;;;1.10;;
51527;SDS011;37612;51.768;21.590;2022-07-09T08:45:25;4.90;;;2.50;;
51527;SDS011;37612;51.768;21.590;2022-07-09T08:49:31;3.60;;;2.50;;
51527;SDS011;37612;51.768;21.590;2022-07-09T08:53:33;7.30;;;2.80;;
51527;SDS011;37612;51.768;21.590;2022-07-09T08:57:36;6.80;;;2.20;;
51527;SDS011;37612;51.768;21.590;2022-07-09T09:01:39;3.20;;;2.00;;
51527;SDS011;37612;51.768;21.590;2022-07-09T09:09:43;3.80;;;2.20;;
51527;SDS011;37612;51.768;21.590;2022-07-09T09:13:46;7.40;;;3.60;;
51527;SDS011;37612;51.768;21.590;2022-07-09T09:17:50;11.60;;;7.30;;
51527;SDS011;37612;51.768;21.590;2022-07-09T09:21:52;5.60;;;2.90;;
51527;SDS011;37612;51.768;21.590;2022-07-09T09:25:55;1.50;;;1.40;;
51527;SDS011;37612;51.768;21.590;2022-07-09T09:29:57;2.80;;;1.80;;
51527;SDS011;37612;51.768;21.590;2022-07-09T09:38:08;4.20;;;1.50;;
51527;SDS011;37612;51.768;21.590;2022-07-09T09:42:10;4.70;;;2.30;;
51527;SDS011;37612;51.768;21.590;2022-07-09T09:46:17;2.40;;;1.20;;
51527;SDS011;37612;51.768;21.590;2022-07-09T09:50:22;2.00;;;1.40;;
51527;SDS011;37612;51.768;21.590;2022-07-09T09:54:25;1.80;;;1.00;;
51527;SDS011;37612;51.768;21.590;2022-07-09T09:58:27;2.00;;;0.90;;
51527;SDS011;37612;51.768;21.590;2022-07-09T10:02:31;2.40;;;0.80;;
51527;SDS011;37612;51.768;21.590;2022-07-09T10:06:36;1.50;;;0.70;;
51527;SDS011;37612;51.768;21.590;2022-07-09T10:10:39;1.20;;;0.80;;
51527;SDS011;37612;51.768;21.590;2022-07-09T10:14:54;4.70;;;0.70;;
51527;SDS011;37612;51.768;21.590;2022-07-09T10:18:56;3.80;;;0.80;;
51527;SDS011;37612;51.768;21.590;2022-07-09T10:22:58;3.40;;;1.30;;
51527;SDS011;37612;51.768;21.590;2022-07-09T10:27:03;1.50;;;0.80;;
51527;SDS011;37612;51.768;21.590;2022-07-09T10:31:07;2.20;;;1.00;;
51527;SDS011;37612;51.768;21.590;2022-07-09T10:35:09;2.90;;;0.80;;
51527;SDS011;37612;51.768;21.590;2022-07-09T10:39:11;1.90;;;1.00;;
51527;SDS011;37612;51.768;21.590;2022-07-09T10:43:13;2.00;;;0.90;;
51527;SDS011;37612;51.768;21.590;2022-07-09T10:47:18;2.00;;;0.90;;
51527;SDS011;37612;51.768;21.590;2022-07-09T10:51:22;1.30;;;0.60;;
51527;SDS011;37612;51.768;21.590;2022-07-09T10:55:25;2.30;;;0.80;;
51527;SDS011;37612;51.768;21.590;2022-07-09T10:59:31;4.30;;;1.30;;
51527;SDS011;37612;51.768;21.590;2022-07-09T11:03:33;5.30;;;1.00;;
51527;SDS011;37612;51.768;21.590;2022-07-09T11:11:37;8.00;;;1.80;;
51527;SDS011;37612;51.768;21.590;2022-07-09T11:19:41;2.60;;;0.80;;
51527;SDS011;37612;51.768;21.590;2022-07-09T11:23:47;0.80;;;0.60;;
51527;SDS011;37612;51.768;21.590;2022-07-09T11:27:51;2.30;;;0.80;;
51527;SDS011;37612;51.768;21.590;2022-07-09T11:31:53;1.70;;;0.60;;
51527;SDS011;37612;51.768;21.590;2022-07-09T11:36:08;4.00;;;0.70;;
51527;SDS011;37612;51.768;21.590;2022-07-09T11:40:16;2.00;;;0.80;;
51527;SDS011;37612;51.768;21.590;2022-07-09T11:48:23;2.60;;;0.60;;
51527;SDS011;37612;51.768;21.590;2022-07-09T11:52:24;1.30;;;0.60;;
51527;SDS011;37612;51.768;21.590;2022-07-09T11:56:27;2.10;;;0.80;;
51527;SDS011;37612;51.768;21.590;2022-07-09T12:00:30;1.90;;;0.80;;
51527;SDS011;37612;51.768;21.590;2022-07-09T12:04:35;2.40;;;1.00;;
51527;SDS011;37612;51.768;21.590;2022-07-09T12:08:37;2.00;;;0.90;;
51527;SDS011;37612;51.768;21.590;2022-07-09T12:12:39;5.40;;;1.00;;
51527;SDS011;37612;51.768;21.590;2022-07-09T12:16:45;4.80;;;1.20;;
51527;SDS011;37612;51.768;21.590;2022-07-09T12:20:48;3.20;;;1.10;;
51527;SDS011;37612;51.768;21.590;2022-07-09T12:24:55;1.60;;;0.90;;
51527;SDS011;37612;51.768;21.590;2022-07-09T12:28:58;1.70;;;0.80;;
51527;SDS011;37612;51.768;21.590;2022-07-09T12:33:00;5.10;;;1.30;;
51527;SDS011;37612;51.768;21.590;2022-07-09T12:37:02;2.90;;;1.10;;
51527;SDS011;37612;51.768;21.590;2022-07-09T12:41:04;14.30;;;2.00;;
51527;SDS011;37612;51.768;21.590;2022-07-09T12:45:06;5.30;;;1.90;;
51527;SDS011;37612;51.768;21.590;2022-07-09T12:49:08;2.70;;;1.20;;
51527;SDS011;37612;51.768;21.590;2022-07-09T12:53:10;1.00;;;0.70;;
51527;SDS011;37612;51.768;21.590;2022-07-09T12:57:12;3.20;;;1.00;;
51527;SDS011;37612;51.768;21.590;2022-07-09T13:05:16;2.20;;;0.90;;
51527;SDS011;37612;51.768;21.590;2022-07-09T13:09:18;2.30;;;0.80;;
51527;SDS011;37612;51.768;21.590;2022-07-09T13:13:20;1.90;;;1.00;;
51527;SDS011;37612;51.768;21.590;2022-07-09T13:21:23;2.30;;;1.00;;
51527;SDS011;37612;51.768;21.590;2022-07-09T13:29:27;1.50;;;0.90;;
51527;SDS011;37612;51.768;21.590;2022-07-09T13:37:30;4.00;;;0.80;;
51527;SDS011;37612;51.768;21.590;2022-07-09T13:41:35;3.90;;;0.90;;
51527;SDS011;37612;51.768;21.590;2022-07-09T13:45:37;2.90;;;0.90;;
51527;SDS011;37612;51.768;21.590;2022-07-09T13:49:40;3.20;;;1.20;;
51527;SDS011;37612;51.768;21.590;2022-07-09T13:53:42;3.30;;;0.80;;
51527;SDS011;37612;51.768;21.590;2022-07-09T13:57:44;2.80;;;1.30;;
51527;SDS011;37612;51.768;21.590;2022-07-09T14:01:46;3.50;;;1.00;;
51527;SDS011;37612;51.768;21.590;2022-07-09T14:09:49;4.10;;;1.00;;
51527;SDS011;37612;51.768;21.590;2022-07-09T14:13:51;7.80;;;1.00;;
51527;SDS011;37612;51.768;21.590;2022-07-09T14:17:55;2.30;;;1.00;;
51527;SDS011;37612;51.768;21.590;2022-07-09T14:21:56;3.20;;;0.80;;
51527;SDS011;37612;51.768;21.590;2022-07-09T14:25:58;1.70;;;1.00;;
51527;SDS011;37612;51.768;21.590;2022-07-09T14:34:01;4.60;;;1.10;;
51527;SDS011;37612;51.768;21.590;2022-07-09T14:38:03;2.80;;;1.00;;
51527;SDS011;37612;51.768;21.590;2022-07-09T14:42:05;2.20;;;1.40;;
51527;SDS011;37612;51.768;21.590;2022-07-09T14:46:07;3.30;;;1.30;;
51527;SDS011;37612;51.768;21.590;2022-07-09T14:50:11;1.80;;;1.00;;
51527;SDS011;37612;51.768;21.590;2022-07-09T14:58:16;3.90;;;1.40;;
51527;SDS011;37612;51.768;21.590;2022-07-09T15:02:18;7.70;;;4.10;;
51527;SDS011;37612;51.768;21.590;2022-07-09T15:06:20;4.40;;;1.30;;
51527;SDS011;37612;51.768;21.590;2022-07-09T15:10:22;7.30;;;6.50;;
51527;SDS011;37612;51.768;21.590;2022-07-09T15:14:24;5.00;;;2.30;;
51527;SDS011;37612;51.768;21.590;2022-07-09T15:18:25;11.80;;;2.50;;
51527;SDS011;37612;51.768;21.590;2022-07-09T15:22:27;8.80;;;3.90;;
51527;SDS011;37612;51.768;21.590;2022-07-09T15:26:29;4.70;;;1.80;;
51527;SDS011;37612;51.768;21.590;2022-07-09T15:30:31;5.60;;;1.90;;
51527;SDS011;37612;51.768;21.590;2022-07-09T15:34:34;6.30;;;2.80;;
51527;SDS011;37612;51.768;21.590;2022-07-09T15:38:36;7.60;;;2.70;;
51527;SDS011;37612;51.768;21.590;2022-07-09T15:42:38;6.50;;;2.90;;
51527;SDS011;37612;51.768;21.590;2022-07-09T15:46:39;5.60;;;2.90;;
51527;SDS011;37612;51.768;21.590;2022-07-09T15:54:43;10.40;;;7.10;;
51527;SDS011;37612;51.768;21.590;2022-07-09T15:58:45;7.00;;;2.60;;
51527;SDS011;37612;51.768;21.590;2022-07-09T16:02:47;9.00;;;4.70;;
51527;SDS011;37612;51.768;21.590;2022-07-09T16:06:50;9.90;;;4.80;;
51527;SDS011;37612;51.768;21.590;2022-07-09T16:10:52;4.00;;;2.10;;
51527;SDS011;37612;51.768;21.590;2022-07-09T16:14:54;11.80;;;6.40;;
51527;SDS011;37612;51.768;21.590;2022-07-09T16:18:56;4.80;;;2.80;;
51527;SDS011;37612;51.768;21.590;2022-07-09T16:22:58;6.90;;;2.60;;
51527;SDS011;37612;51.768;21.590;2022-07-09T16:26:59;4.70;;;3.30;;
51527;SDS011;37612;51.768;21.590;2022-07-09T16:31:02;5.20;;;2.00;;
51527;SDS011;37612;51.768;21.590;2022-07-09T16:35:07;4.80;;;1.80;;
51527;SDS011;37612;51.768;21.590;2022-07-09T16:39:10;4.90;;;3.00;;
51527;SDS011;37612;51.768;21.590;2022-07-09T16:43:12;8.60;;;3.00;;
51527;SDS011;37612;51.768;21.590;2022-07-09T16:47:14;24.40;;;9.60;;
51527;SDS011;37612;51.768;21.590;2022-07-09T16:51:16;22.20;;;10.10;;
51527;SDS011;37612;51.768;21.590;2022-07-09T16:59:19;29.60;;;12.00;;
51527;SDS011;37612;51.768;21.590;2022-07-09T17:03:21;49.00;;;21.50;;
51527;SDS011;37612;51.768;21.590;2022-07-09T17:07:23;48.90;;;21.70;;
51527;SDS011;37612;51.768;21.590;2022-07-09T17:11:24;8.50;;;3.90;;
51527;SDS011;37612;51.768;21.590;2022-07-09T17:19:28;19.60;;;8.00;;
51527;SDS011;37612;51.768;21.590;2022-07-09T17:23:30;99.20;;;39.70;;
51527;SDS011;37612;51.768;21.590;2022-07-09T17:27:34;51.00;;;27.70;;
51527;SDS011;37612;51.768;21.590;2022-07-09T17:31:36;5.50;;;3.20;;
51527;SDS011;37612;51.768;21.590;2022-07-09T17:35:38;14.20;;;9.90;;
51527;SDS011;37612;51.768;21.590;2022-07-09T17:39:41;13.00;;;7.50;;
51527;SDS011;37612;51.768;21.590;2022-07-09T17:43:43;28.10;;;16.80;;
51527;SDS011;37612;51.768;21.590;2022-07-09T17:47:45;26.80;;;14.40;;
51527;SDS011;37612;51.768;21.590;2022-07-09T17:51:48;49.70;;;26.80;;
51527;SDS011;37612;51.768;21.590;2022-07-09T17:55:51;44.50;;;23.80;;
51527;SDS011;37612;51.768;21.590;2022-07-09T17:59:53;25.90;;;13.50;;
51527;SDS011;37612;51.768;21.590;2022-07-09T18:03:55;12.70;;;7.50;;
51527;SDS011;37612;51.768;21.590;2022-07-09T18:07:56;61.10;;;31.60;;
51527;SDS011;37612;51.768;21.590;2022-07-09T18:11:59;42.30;;;19.20;;
51527;SDS011;37612;51.768;21.590;2022-07-09T18:16:01;24.60;;;12.00;;
51527;SDS011;37612;51.768;21.590;2022-07-09T18:20:03;14.10;;;6.00;;
51527;SDS011;37612;51.768;21.590;2022-07-09T18:24:09;44.80;;;18.70;;
51527;SDS011;37612;51.768;21.590;2022-07-09T18:28:11;55.50;;;21.30;;
51527;SDS011;37612;51.768;21.590;2022-07-09T18:32:12;22.50;;;7.40;;
51527;SDS011;37612;51.768;21.590;2022-07-09T18:36:14;8.40;;;4.20;;
51527;SDS011;37612;51.768;21.590;2022-07-09T18:40:16;5.60;;;3.50;;
51527;SDS011;37612;51.768;21.590;2022-07-09T18:44:18;30.20;;;14.10;;
51527;SDS011;37612;51.768;21.590;2022-07-09T18:48:20;34.10;;;15.10;;
51527;SDS011;37612;51.768;21.590;2022-07-09T18:52:21;31.70;;;13.20;;
51527;SDS011;37612;51.768;21.590;2022-07-09T18:56:23;21.10;;;9.10;;
51527;SDS011;37612;51.768;21.590;2022-07-09T19:00:26;13.20;;;6.70;;
51527;SDS011;37612;51.768;21.590;2022-07-09T19:04:28;17.70;;;6.70;;
51527;SDS011;37612;51.768;21.590;2022-07-09T19:08:30;11.80;;;6.20;;
51527;SDS011;37612;51.768;21.590;2022-07-09T19:12:32;10.70;;;4.90;;
51527;SDS011;37612;51.768;21.590;2022-07-09T19:16:34;8.80;;;4.20;;
51527;SDS011;37612;51.768;21.590;2022-07-09T19:20:36;5.80;;;2.70;;
51527;SDS011;37612;51.768;21.590;2022-07-09T19:24:38;10.00;;;3.40;;
51527;SDS011;37612;51.768;21.590;2022-07-09T19:28:40;7.60;;;3.40;;
51527;SDS011;37612;51.768;21.590;2022-07-09T19:32:43;4.50;;;3.10;;
51527;SDS011;37612;51.768;21.590;2022-07-09T19:37:04;4.30;;;2.80;;
51527;SDS011;37612;51.768;21.590;2022-07-09T19:41:06;4.60;;;2.70;;
51527;SDS011;37612;51.768;21.590;2022-07-09T19:45:09;7.90;;;2.60;;
51527;SDS011;37612;51.768;21.590;2022-07-09T19:49:11;5.70;;;3.30;;
51527;SDS011;37612;51.768;21.590;2022-07-09T19:53:13;8.80;;;3.20;;
51527;SDS011;37612;51.768;21.590;2022-07-09T19:57:16;5.40;;;3.30;;
51527;SDS011;37612;51.768;21.590;2022-07-09T20:01:18;3.80;;;2.40;;
51527;SDS011;37612;51.768;21.590;2022-07-09T20:05:29;2.70;;;2.10;;
51527;SDS011;37612;51.768;21.590;2022-07-09T20:09:31;3.50;;;2.20;;
51527;SDS011;37612;51.768;21.590;2022-07-09T20:13:47;5.20;;;3.20;;
51527;SDS011;37612;51.768;21.590;2022-07-09T20:21:54;5.20;;;2.80;;
51527;SDS011;37612;51.768;21.590;2022-07-09T20:25:56;7.40;;;2.50;;
51527;SDS011;37612;51.768;21.590;2022-07-09T20:29:58;6.60;;;3.20;;
51527;SDS011;37612;51.768;21.590;2022-07-09T20:33:59;7.80;;;3.80;;
51527;SDS011;37612;51.768;21.590;2022-07-09T20:38:01;5.30;;;3.70;;
51527;SDS011;37612;51.768;21.590;2022-07-09T20:42:03;10.40;;;5.00;;
51527;SDS011;37612;51.768;21.590;2022-07-09T20:46:06;7.10;;;3.20;;
51527;SDS011;37612;51.768;21.590;2022-07-09T20:50:11;4.50;;;3.20;;
51527;SDS011;37612;51.768;21.590;2022-07-09T20:54:13;5.90;;;3.00;;
51527;SDS011;37612;51.768;21.590;2022-07-09T20:58:16;6.30;;;3.10;;
51527;SDS011;37612;51.768;21.590;2022-07-09T21:06:20;4.10;;;3.00;;
51527;SDS011;37612;51.768;21.590;2022-07-09T21:10:21;6.30;;;3.10;;
51527;SDS011;37612;51.768;21.590;2022-07-09T21:14:23;4.80;;;2.60;;
51527;SDS011;37612;51.768;21.590;2022-07-09T21:18:25;6.20;;;3.00;;
51527;SDS011;37612;51.768;21.590;2022-07-09T21:22:46;6.00;;;3.00;;
51527;SDS011;37612;51.768;21.590;2022-07-09T21:26:47;7.70;;;2.80;;
51527;SDS011;37612;51.768;21.590;2022-07-09T21:30:49;4.90;;;2.50;;
51527;SDS011;37612;51.768;21.590;2022-07-09T21:34:51;6.40;;;2.40;;
51527;SDS011;37612;51.768;21.590;2022-07-09T21:39:01;4.60;;;2.50;;
51527;SDS011;37612;51.768;21.590;2022-07-09T21:47:05;4.50;;;3.00;;
51527;SDS011;37612;51.768;21.590;2022-07-09T21:51:06;6.10;;;3.40;;
51527;SDS011;37612;51.768;21.590;2022-07-09T21:55:08;4.90;;;2.80;;
51527;SDS011;37612;51.768;21.590;2022-07-09T21:59:10;8.70;;;3.20;;
51527;SDS011;37612;51.768;21.590;2022-07-09T22:03:13;5.80;;;2.80;;
51527;SDS011;37612;51.768;21.590;2022-07-09T22:07:18;6.30;;;3.50;;
51527;SDS011;37612;51.768;21.590;2022-07-09T22:11:20;7.00;;;3.60;;
51527;SDS011;37612;51.768;21.590;2022-07-09T22:15:22;4.70;;;2.60;;
51527;SDS011;37612;51.768;21.590;2022-07-09T22:19:24;5.10;;;2.60;;
51527;SDS011;37612;51.768;21.590;2022-07-09T22:23:26;7.00;;;3.50;;
51527;SDS011;37612;51.768;21.590;2022-07-09T22:27:28;7.20;;;2.70;;
51527;SDS011;37612;51.768;21.590;2022-07-09T22:31:30;8.20;;;3.10;;
51527;SDS011;37612;51.768;21.590;2022-07-09T22:35:31;4.20;;;2.50;;
51527;SDS011;37612;51.768;21.590;2022-07-09T22:43:36;5.30;;;3.20;;
51527;SDS011;37612;51.768;21.590;2022-07-09T22:47:38;7.10;;;3.50;;
51527;SDS011;37612;51.768;21.590;2022-07-09T22:55:42;4.70;;;2.50;;
51527;SDS011;37612;51.768;21.590;2022-07-09T22:59:44;5.30;;;2.80;;
51527;SDS011;37612;51.768;21.590;2022-07-09T23:03:46;5.00;;;2.90;;
51527;SDS011;37612;51.768;21.590;2022-07-09T23:07:48;6.80;;;3.20;;
51527;SDS011;37612;51.768;21.590;2022-07-09T23:12:08;5.50;;;2.60;;
51527;SDS011;37612;51.768;21.590;2022-07-09T23:16:10;6.80;;;2.60;;
51527;SDS011;37612;51.768;21.590;2022-07-09T23:20:13;4.00;;;2.80;;
51527;SDS011;37612;51.768;21.590;2022-07-09T23:24:15;6.40;;;3.10;;
51527;SDS011;37612;51.768;21.590;2022-07-09T23:28:19;5.90;;;3.30;;
51527;SDS011;37612;51.768;21.590;2022-07-09T23:32:20;5.60;;;2.70;;
51527;SDS011;37612;51.768;21.590;2022-07-09T23:36:22;4.50;;;2.50;;
51527;SDS011;37612;51.768;21.590;2022-07-09T23:40:24;5.40;;;2.60;;
51527;SDS011;37612;51.768;21.590;2022-07-09T23:44:27;5.50;;;2.90;;
51527;SDS011;37612;51.768;21.590;2022-07-09T23:48:29;5.50;;;2.70;;
51527;SDS011;37612;51.768;21.590;2022-07-09T23:52:31;5.50;;;2.60;;
51527;SDS011;37612;51.768;21.590;2022-07-09T23:56:35;6.10;;;2.50;;
